This is the latest recevied weather packets stored in our database for station/object KI7JYE. If no packets are shown the sender has not sent any weather packets the latest 10 day(s).
| Time | Temp. | Humidity | Pressure | Rain* | Wind** | Luminosity | Snow |
|---|---|---|---|---|---|---|---|
| 1777229324 | 18.33° C | 46% | 1009.2 hPa | 0 mm | - | 730 W/m² | - |
| 1777229022 | 17.78° C | 45% | 1009 hPa | 0 mm | - | 726 W/m² | - |
| 1777228718 | 17.78° C | 46% | 1009.3 hPa | 0 mm | - | 715 W/m² | - |
| 1777228414 | 17.22° C | 47% | 1009.3 hPa | 0 mm | - | 731 W/m² | - |
| 1777228110 | 17.22° C | 49% | 1009.1 hPa | 0 mm | - | 727 W/m² | - |
| 1777227809 | 16.11° C | 50% | 1009.1 hPa | 0 mm | - | 740 W/m² | - |
| 1777227507 | 16.67° C | 50% | 1009.1 hPa | 0 mm | - | 738 W/m² | - |
| 1777227201 | 17.22° C | 49% | 1009 hPa | 0 mm | - | 739 W/m² | - |
| 1777226899 | 16.11° C | 51% | 1009.1 hPa | 0 mm | - | 734 W/m² | - |
| 1777226597 | 16.67° C | 51% | 1009.1 hPa | 0 mm | - | 724 W/m² | - |
| 1777226293 | 16.67° C | 51% | 1009.1 hPa | 0 mm | - | 734 W/m² | - |
| 1777225989 | 16.67° C | 50% | 1009.3 hPa | 0 mm | - | 721 W/m² | - |
| 1777225684 | 15.56° C | 54% | 1009 hPa | 0 mm | - | 701 W/m² | - |
| 1777225382 | 15° C | 54% | 1009.2 hPa | 0 mm | - | 638 W/m² | - |
| 1777225079 | 16.11° C | 52% | 1009 hPa | 0 mm | - | 649 W/m² | - |
| 1777224775 | 15.56° C | 54% | 1009.4 hPa | 0 mm | - | 698 W/m² | - |
| 1777224471 | 15° C | 55% | 1008.9 hPa | 0 mm | - | 673 W/m² | - |
| 1777224167 | 15.56° C | 53% | 1008.9 hPa | 0 mm | - | 667 W/m² | - |
| 1777223864 | 15° C | 56% | 1008.8 hPa | 0 mm | - | 665 W/m² | - |
| 1777223560 | 15° C | 56% | 1008.7 hPa | 0 mm | - | 649 W/m² | - |
| 1777223257 | 15.56° C | 57% | 1008.7 hPa | 0 mm | - | 638 W/m² | - |
| 1777222955 | 15° C | 56% | 1009.1 hPa | 0 mm | - | 629 W/m² | - |
| 1777222652 | 13.33° C | 59% | 1008.9 hPa | 0 mm | - | 615 W/m² | - |
| 1777222349 | 13.89° C | 57% | 1008.9 hPa | 0 mm | - | 595 W/m² | - |
| 1777222048 | 13.89° C | 58% | 1009.1 hPa | 0 mm | - | 571 W/m² | - |
* Rain latest hour (hover to see other rain measurements)
** Current wind speed in m/s (hover to see current wind gust speed)